This is the latest recevied weather packets stored in our database for station/object K7GFH-13. If no packets are shown the sender has not sent any weather packets the latest 10 day(s).
| Time | Temp. | Humidity | Pressure | Rain* | Wind** | Luminosity | Snow |
|---|---|---|---|---|---|---|---|
| 1777642197 | 10.56° C | 82% | 1018 hPa | 0 mm | - | 23 W/m² | - |
| 1777641295 | 10° C | 81% | 1017.8 hPa | 0 mm | - | 12 W/m² | - |
| 1777640391 | 9.44° C | 81% | 1017.8 hPa | 0 mm | - | 4 W/m² | - |
| 1777639489 | 10.56° C | 78% | 1017.6 hPa | 0 mm | - | 1 W/m² | - |
| 1777638588 | 11.11° C | 76% | 1017.8 hPa | 0 mm | - | 0 W/m² | - |
| 1777637684 | 10.56° C | 72% | 1017.6 hPa | 0 mm | - | 0 W/m² | - |
| 1777636779 | 10.56° C | 70% | 1017.8 hPa | 0 mm | - | 0 W/m² | - |
| 1777635878 | 11.11° C | 66% | 1017.8 hPa | 0 mm | - | 0 W/m² | - |
| 1777634975 | 11.67° C | 62% | 1017.7 hPa | 0 mm | - | 0 W/m² | - |
| 1777634071 | 11.67° C | 63% | 1017.7 hPa | 0 mm | - | 0 W/m² | - |
| 1777633169 | 12.22° C | 58% | 1017.5 hPa | 0 mm | - | 0 W/m² | - |
| 1777632265 | 13.89° C | 52% | 1017.4 hPa | 0 mm | - | 0 W/m² | - |
| 1777631363 | 12.22° C | 58% | 1017.4 hPa | 0 mm | - | 0 W/m² | - |
| 1777630459 | 13.33° C | 56% | 1017.3 hPa | 0 mm | - | 0 W/m² | - |
| 1777629556 | 14.44° C | 49% | 1017.2 hPa | 0 mm | - | 0 W/m² | - |
| 1777628651 | 14.44° C | 49% | 1017.2 hPa | 0 mm | - | 0 W/m² | - |
| 1777627748 | 14.44° C | 51% | 1017.1 hPa | 0 mm | - | 0 W/m² | - |
| 1777626846 | 14.44° C | 51% | 1017.2 hPa | 0 mm | - | 0 W/m² | - |
| 1777625941 | 15° C | 50% | 1017.1 hPa | 0 mm | - | 0 W/m² | - |
| 1777625036 | 14.44° C | 52% | 1017.2 hPa | 0 mm | - | 0 W/m² | - |
| 1777624132 | 15° C | 51% | 1017.1 hPa | 0 mm | - | 0 W/m² | - |
| 1777623229 | 15.56° C | 50% | 1017.2 hPa | 0 mm | - | 0 W/m² | - |
| 1777622324 | 15° C | 53% | 1017.3 hPa | 0 mm | - | 0 W/m² | - |
| 1777621419 | 15.56° C | 50% | 1017.3 hPa | 0 mm | - | 0 W/m² | - |
| 1777620513 | 15° C | 52% | 1017.3 hPa | 0 mm | - | 0 W/m² | - |
* Rain latest hour (hover to see other rain measurements)
** Current wind speed in m/s (hover to see current wind gust speed)